createdAt,value
2023-05-17T00:01:59.931Z,13.40
2023-05-17T00:04:26.766Z,13.40
2023-05-17T00:06:53.636Z,13.80
2023-05-17T00:09:20.461Z,13.90
2023-05-17T00:11:47.306Z,13.70
2023-05-17T00:14:14.123Z,13.90
2023-05-17T00:16:41.045Z,14.00
2023-05-17T00:19:09.554Z,13.80
2023-05-17T00:21:36.690Z,13.90
2023-05-17T00:24:03.684Z,14.00
2023-05-17T00:26:30.774Z,13.90
2023-05-17T00:28:57.552Z,13.90
2023-05-17T00:31:24.431Z,13.60
2023-05-17T00:33:51.420Z,14.00
2023-05-17T00:36:18.398Z,13.80
2023-05-17T00:38:45.260Z,13.90
2023-05-17T00:41:13.056Z,13.90
2023-05-17T00:43:40.155Z,13.90
2023-05-17T00:46:06.973Z,13.60
2023-05-17T00:48:34.052Z,13.20
2023-05-17T00:51:00.983Z,13.30
2023-05-17T00:53:29.105Z,13.30
2023-05-17T00:55:56.367Z,13.50
2023-05-17T00:58:24.412Z,13.40
2023-05-17T01:00:51.691Z,13.40
2023-05-17T01:03:18.532Z,13.30
2023-05-17T01:05:45.682Z,13.40
2023-05-17T01:08:12.488Z,13.80
2023-05-17T01:11:24.646Z,13.60
2023-05-17T01:14:15.295Z,13.90
2023-05-17T01:16:55.831Z,13.90
2023-05-17T01:19:22.670Z,13.70
2023-05-17T01:21:59.146Z,13.60
2023-05-17T01:25:01.481Z,13.30
2023-05-17T01:27:30.627Z,13.70
2023-05-17T01:29:58.181Z,13.50
2023-05-17T01:32:25.605Z,13.20
2023-05-17T01:34:52.528Z,13.30
2023-05-17T01:37:19.416Z,13.40
2023-05-17T01:39:46.775Z,13.40
2023-05-17T01:42:27.396Z,13.10
2023-05-17T01:45:04.874Z,13.10
2023-05-17T01:48:10.121Z,12.80
2023-05-17T01:50:38.637Z,12.70
2023-05-17T01:53:30.345Z,13.10
2023-05-17T01:56:29.883Z,12.70
2023-05-17T01:58:59.322Z,12.70
2023-05-17T02:01:28.682Z,12.70
2023-05-17T02:03:55.493Z,12.70
2023-05-17T02:06:22.358Z,12.40
2023-05-17T02:08:49.182Z,12.40
2023-05-17T02:11:16.108Z,12.40
2023-05-17T02:13:42.930Z,12.50
2023-05-17T02:16:09.776Z,12.70
2023-05-17T02:18:37.853Z,12.50
2023-05-17T02:21:05.099Z,12.40
2023-05-17T02:23:31.977Z,12.20
2023-05-17T02:25:58.817Z,12.30
2023-05-17T02:28:27.032Z,12.30
2023-05-17T02:30:54.186Z,12.40
2023-05-17T02:33:21.124Z,12.30
2023-05-17T02:35:50.039Z,12.00
2023-05-17T02:38:16.816Z,12.20
2023-05-17T02:40:46.245Z,12.10
2023-05-17T02:43:13.038Z,12.20
2023-05-17T02:45:39.845Z,12.30
2023-05-17T02:48:07.026Z,12.10
2023-05-17T02:50:33.839Z,12.10
2023-05-17T02:53:01.106Z,11.80
2023-05-17T02:55:28.034Z,12.20
2023-05-17T02:57:55.006Z,12.00
2023-05-17T03:00:21.827Z,12.20
2023-05-17T03:02:48.738Z,12.20
2023-05-17T03:05:15.697Z,12.10
2023-05-17T03:07:42.616Z,12.00
2023-05-17T03:10:09.788Z,12.00
2023-05-17T03:12:36.560Z,12.00
2023-05-17T03:15:04.308Z,12.20
2023-05-17T03:17:31.423Z,12.00
2023-05-17T03:19:58.337Z,11.80
2023-05-17T03:22:25.295Z,12.00
2023-05-17T03:24:52.084Z,12.00
2023-05-17T03:27:18.875Z,11.80
2023-05-17T03:29:45.716Z,12.10
2023-05-17T03:32:12.516Z,12.00
2023-05-17T03:34:39.285Z,12.00
2023-05-17T03:37:06.094Z,12.10
2023-05-17T03:39:32.918Z,12.00
2023-05-17T03:41:59.902Z,12.10
2023-05-17T03:44:26.677Z,12.10
2023-05-17T03:46:53.600Z,11.80
2023-05-17T03:49:21.018Z,12.00
2023-05-17T03:51:47.765Z,12.10
2023-05-17T03:54:14.667Z,12.20
2023-05-17T03:56:43.615Z,12.10
2023-05-17T03:59:10.445Z,12.20
2023-05-17T04:01:37.320Z,12.20
2023-05-17T04:04:04.613Z,12.00
2023-05-17T04:06:32.847Z,12.30
2023-05-17T04:08:59.986Z,12.40
2023-05-17T04:11:27.728Z,12.70
2023-05-17T04:13:54.890Z,12.40
2023-05-17T04:16:22.152Z,12.70
2023-05-17T04:18:52.731Z,12.60
2023-05-17T04:21:20.105Z,12.70
2023-05-17T04:23:46.896Z,12.30
2023-05-17T04:26:15.105Z,12.40
2023-05-17T04:28:41.895Z,12.20
2023-05-17T04:31:09.012Z,12.40
2023-05-17T04:33:37.005Z,12.10
2023-05-17T04:36:04.135Z,12.10
2023-05-17T04:38:31.249Z,12.20
2023-05-17T04:41:05.347Z,12.10
2023-05-17T04:43:33.220Z,12.20
2023-05-17T04:46:00.894Z,12.00
2023-05-17T04:48:31.107Z,12.20
2023-05-17T04:51:01.461Z,12.00
2023-05-17T04:53:28.270Z,12.10
2023-05-17T04:55:55.005Z,11.90
2023-05-17T04:58:21.806Z,12.40
2023-05-17T05:00:48.681Z,12.00
2023-05-17T05:03:15.587Z,12.10
2023-05-17T05:05:42.561Z,12.10
2023-05-17T05:08:09.801Z,12.00
2023-05-17T05:10:36.868Z,11.90
2023-05-17T05:13:06.761Z,12.10
2023-05-17T05:15:33.624Z,11.80
2023-05-17T05:18:00.668Z,11.80
2023-05-17T05:20:28.250Z,11.90
2023-05-17T05:22:55.277Z,11.80
2023-05-17T05:25:22.107Z,12.00
2023-05-17T05:27:48.900Z,11.90
2023-05-17T05:30:22.336Z,11.70
2023-05-17T05:32:50.498Z,11.80
2023-05-17T05:35:18.074Z,11.90
2023-05-17T05:37:45.276Z,12.00
2023-05-17T05:40:12.849Z,11.80
2023-05-17T05:42:39.694Z,12.10
2023-05-17T05:45:07.174Z,12.20
2023-05-17T05:47:34.102Z,12.00
2023-05-17T05:50:00.979Z,12.00
2023-05-17T05:52:27.829Z,12.20
2023-05-17T05:54:54.848Z,12.10
2023-05-17T05:57:21.776Z,12.00
2023-05-17T05:59:48.822Z,12.20
2023-05-17T06:02:16.901Z,12.00
2023-05-17T06:04:45.678Z,11.90
2023-05-17T06:07:14.059Z,11.90
2023-05-17T06:09:41.632Z,11.90
2023-05-17T06:12:08.914Z,12.10
2023-05-17T06:14:37.503Z,12.30
2023-05-17T06:17:04.668Z,12.10
2023-05-17T06:19:31.717Z,12.30
2023-05-17T06:21:58.691Z,12.20
2023-05-17T06:24:25.792Z,12.10
2023-05-17T06:26:52.609Z,12.30
2023-05-17T06:29:19.407Z,12.30
2023-05-17T06:31:46.237Z,12.20
2023-05-17T06:34:13.264Z,12.50
2023-05-17T06:36:40.860Z,12.30
2023-05-17T06:39:07.885Z,12.60
2023-05-17T06:41:35.099Z,12.50
2023-05-17T06:44:01.901Z,12.80
2023-05-17T06:46:28.774Z,12.90
2023-05-17T06:48:55.962Z,12.90
2023-05-17T06:51:23.647Z,12.60
2023-05-17T06:53:50.764Z,12.50
2023-05-17T06:56:17.642Z,12.60
2023-05-17T06:58:44.436Z,12.60
2023-05-17T07:01:11.264Z,12.60
2023-05-17T07:03:38.183Z,12.70
2023-05-17T07:06:05.364Z,12.80
2023-05-17T07:08:32.169Z,12.70
2023-05-17T07:10:59.100Z,12.90
2023-05-17T07:13:25.963Z,12.70
2023-05-17T07:15:52.900Z,13.00
2023-05-17T07:18:19.869Z,13.00
2023-05-17T07:20:46.946Z,13.00
2023-05-17T07:23:13.806Z,12.90
2023-05-17T07:25:42.750Z,12.50
2023-05-17T07:28:09.577Z,12.70
2023-05-17T07:30:36.391Z,12.70
2023-05-17T07:33:03.222Z,12.80
2023-05-17T07:35:30.280Z,12.90
2023-05-17T07:37:57.288Z,13.40
2023-05-17T07:40:24.118Z,13.20
2023-05-17T07:42:51.166Z,13.50
2023-05-17T07:45:18.374Z,13.60
2023-05-17T07:47:45.577Z,13.60
2023-05-17T07:50:12.791Z,13.60
2023-05-17T07:52:39.659Z,13.60
2023-05-17T07:55:07.144Z,13.80
2023-05-17T07:57:34.002Z,13.70
2023-05-17T08:00:00.812Z,13.50
2023-05-17T08:02:27.656Z,13.50
2023-05-17T08:04:54.659Z,13.70
2023-05-17T08:07:21.522Z,13.70
2023-05-17T08:09:48.384Z,13.50
2023-05-17T08:12:15.181Z,13.70
2023-05-17T08:14:42.046Z,13.20
2023-05-17T08:17:08.874Z,13.40
2023-05-17T08:19:36.397Z,13.70
2023-05-17T08:22:03.502Z,13.40
2023-05-17T08:24:30.433Z,13.10
2023-05-17T08:26:57.433Z,13.30
2023-05-17T08:29:24.399Z,13.40
2023-05-17T08:31:52.557Z,13.20
2023-05-17T08:34:19.404Z,13.20
2023-05-17T08:36:46.368Z,13.10
2023-05-17T08:39:13.399Z,13.40
2023-05-17T08:41:40.565Z,13.40
2023-05-17T08:44:08.413Z,13.30
2023-05-17T08:46:37.052Z,13.60
2023-05-17T08:49:07.241Z,13.40
2023-05-17T08:51:36.440Z,13.60
2023-05-17T08:54:06.233Z,13.60
2023-05-17T08:56:35.740Z,13.60
2023-05-17T08:59:05.708Z,13.70
2023-05-17T09:01:33.364Z,13.80
2023-05-17T09:04:00.703Z,13.90
2023-05-17T09:06:27.861Z,13.80
2023-05-17T09:08:55.444Z,14.20
2023-05-17T09:11:28.025Z,14.30
2023-05-17T09:14:01.621Z,14.20
2023-05-17T09:16:30.097Z,14.10
2023-05-17T09:18:57.877Z,14.10
2023-05-17T09:21:26.173Z,14.00
2023-05-17T09:24:04.735Z,14.10
2023-05-17T09:26:46.301Z,14.30
2023-05-17T09:29:15.352Z,14.10
2023-05-17T09:31:43.487Z,14.40
2023-05-17T09:34:11.156Z,14.60
2023-05-17T09:36:39.153Z,14.60
2023-05-17T09:39:10.539Z,15.10
2023-05-17T09:41:48.233Z,15.10
2023-05-17T09:44:15.918Z,15.00
2023-05-17T09:46:45.646Z,14.90
2023-05-17T09:49:13.860Z,15.00
2023-05-17T09:51:42.457Z,14.80
2023-05-17T09:54:10.518Z,15.20
2023-05-17T09:56:37.908Z,15.30
2023-05-17T09:59:11.266Z,15.00
2023-05-17T10:01:41.311Z,15.30
2023-05-17T10:04:12.106Z,14.80
2023-05-17T10:06:49.665Z,14.80
2023-05-17T10:09:21.672Z,14.70
2023-05-17T10:11:50.993Z,14.70
2023-05-17T10:14:23.205Z,15.00
2023-05-17T10:16:51.745Z,15.10
2023-05-17T10:19:21.092Z,15.20
2023-05-17T10:21:50.134Z,15.20
2023-05-17T10:24:17.499Z,14.70
2023-05-17T10:26:45.017Z,14.70
2023-05-17T10:29:11.890Z,14.90
2023-05-17T10:31:41.206Z,15.00
2023-05-17T10:34:10.131Z,15.30
2023-05-17T10:36:37.977Z,15.30
2023-05-17T10:39:09.807Z,15.30
2023-05-17T10:41:39.817Z,15.70
2023-05-17T10:44:08.401Z,15.30
2023-05-17T10:46:36.176Z,15.20
2023-05-17T10:49:03.683Z,15.20
2023-05-17T10:51:31.635Z,15.00
2023-05-17T10:54:04.174Z,14.90
2023-05-17T10:56:32.090Z,15.40
2023-05-17T10:59:32.195Z,15.50
2023-05-17T11:02:03.532Z,15.30
2023-05-17T11:04:41.640Z,15.60
2023-05-17T11:07:17.882Z,15.60
2023-05-17T11:10:10.128Z,15.50
2023-05-17T11:12:40.389Z,15.30
2023-05-17T11:15:11.794Z,15.40
2023-05-17T11:17:46.655Z,15.50
2023-05-17T11:20:17.439Z,15.40
2023-05-17T11:22:58.920Z,15.60
2023-05-17T11:25:30.331Z,15.40
2023-05-17T11:27:58.661Z,15.80
2023-05-17T11:30:31.566Z,15.60
2023-05-17T11:33:01.050Z,15.40
2023-05-17T11:35:32.122Z,15.50
2023-05-17T11:38:19.219Z,15.50
2023-05-17T11:40:48.280Z,15.90
2023-05-17T11:43:15.225Z,16.00
2023-05-17T11:45:52.887Z,15.70
2023-05-17T11:48:24.978Z,15.70
2023-05-17T11:50:53.677Z,15.70
2023-05-17T11:53:21.609Z,15.90
2023-05-17T11:55:52.667Z,15.60
2023-05-17T11:58:26.842Z,15.70
2023-05-17T12:01:01.486Z,15.50
2023-05-17T12:03:29.927Z,15.60
2023-05-17T12:06:09.541Z,16.10
2023-05-17T12:08:38.526Z,16.20
2023-05-17T12:11:07.363Z,16.10
2023-05-17T12:13:35.673Z,16.50
2023-05-17T12:16:07.176Z,16.50
2023-05-17T12:18:38.663Z,15.90
2023-05-17T12:21:06.832Z,15.70
2023-05-17T12:23:40.684Z,16.00
2023-05-17T12:26:08.816Z,16.00
2023-05-17T12:28:38.636Z,15.90
2023-05-17T12:31:10.687Z,16.00
2023-05-17T12:33:41.192Z,15.90
2023-05-17T12:36:10.107Z,16.30
2023-05-17T12:38:39.498Z,16.40
2023-05-17T12:41:08.002Z,16.00
2023-05-17T12:43:36.217Z,16.00
2023-05-17T12:46:11.834Z,16.20
2023-05-17T12:48:41.133Z,16.20
2023-05-17T12:51:12.308Z,16.30
2023-05-17T12:54:03.574Z,16.50
2023-05-17T12:56:30.580Z,16.70
2023-05-17T12:59:25.849Z,16.70
2023-05-17T13:01:57.586Z,16.60
2023-05-17T13:04:33.384Z,16.60
2023-05-17T13:07:05.245Z,16.30
2023-05-17T13:09:34.386Z,16.50
2023-05-17T13:14:46.593Z,16.50
2023-05-17T13:17:26.926Z,16.30
2023-05-17T13:19:57.158Z,16.60
2023-05-17T13:22:25.272Z,16.50
2023-05-17T13:24:52.312Z,16.80
2023-05-17T13:27:19.453Z,17.00
2023-05-17T13:29:46.437Z,16.90
2023-05-17T13:32:14.230Z,16.90
2023-05-17T13:34:41.359Z,16.90
2023-05-17T13:37:11.445Z,17.10
2023-05-17T13:39:39.153Z,16.90
2023-05-17T13:42:06.229Z,16.80
2023-05-17T13:44:33.228Z,17.00
2023-05-17T13:47:00.086Z,17.00
2023-05-17T13:49:28.356Z,17.10
2023-05-17T13:51:55.193Z,17.20
2023-05-17T13:54:25.212Z,17.40
2023-05-17T13:56:52.230Z,17.50
2023-05-17T13:59:19.138Z,17.40
2023-05-17T14:01:46.284Z,17.30
2023-05-17T14:04:13.494Z,17.40
2023-05-17T14:06:41.784Z,17.20
2023-05-17T14:09:08.595Z,17.10
2023-05-17T14:11:35.690Z,17.10
2023-05-17T14:14:04.118Z,16.90
2023-05-17T14:16:31.317Z,16.90
2023-05-17T14:18:59.401Z,17.00
2023-05-17T14:21:27.837Z,16.90
2023-05-17T14:23:54.637Z,17.00
2023-05-17T14:26:22.236Z,17.20
2023-05-17T14:28:49.081Z,17.20
2023-05-17T14:31:16.143Z,17.10
2023-05-17T14:33:43.032Z,17.40
2023-05-17T14:36:10.892Z,17.40
2023-05-17T14:38:39.348Z,17.30
2023-05-17T14:41:06.733Z,17.30
2023-05-17T14:43:33.615Z,17.20
2023-05-17T14:46:00.438Z,17.20
2023-05-17T14:48:27.463Z,17.60
2023-05-17T14:50:54.442Z,17.40
2023-05-17T14:53:21.673Z,17.40
2023-05-17T14:55:48.706Z,17.40
2023-05-17T14:58:15.920Z,17.60
2023-05-17T15:00:47.845Z,17.50
2023-05-17T15:03:19.432Z,17.80
2023-05-17T15:05:57.131Z,17.60
2023-05-17T15:08:24.385Z,17.80
2023-05-17T15:10:52.008Z,17.80
2023-05-17T15:13:18.899Z,17.90
2023-05-17T15:15:46.880Z,18.00
2023-05-17T15:18:13.989Z,18.20
2023-05-17T15:20:41.692Z,17.80
2023-05-17T15:23:08.572Z,17.60
2023-05-17T15:25:35.787Z,17.90
2023-05-17T15:28:02.573Z,17.70
2023-05-17T15:30:29.371Z,17.90
2023-05-17T15:32:59.731Z,17.50
2023-05-17T15:35:27.668Z,17.90
2023-05-17T15:37:55.246Z,17.70
2023-05-17T15:40:22.273Z,17.70
2023-05-17T15:42:51.231Z,17.80
2023-05-17T15:45:18.630Z,17.90
2023-05-17T15:47:45.778Z,18.10
2023-05-17T15:50:17.289Z,18.00
2023-05-17T15:52:44.310Z,18.00
2023-05-17T15:55:11.321Z,18.00
2023-05-17T15:57:39.209Z,18.20
2023-05-17T16:00:06.867Z,18.30
2023-05-17T16:02:34.421Z,18.20
2023-05-17T16:05:03.512Z,18.00
2023-05-17T16:07:31.356Z,18.20
2023-05-17T16:09:58.340Z,18.60
2023-05-17T16:12:25.154Z,18.70
2023-05-17T16:14:52.052Z,18.50
2023-05-17T16:17:18.946Z,18.10
2023-05-17T16:19:45.999Z,18.00
2023-05-17T16:22:13.390Z,18.00
2023-05-17T16:24:40.611Z,18.20
2023-05-17T16:27:08.249Z,18.10
2023-05-17T16:29:39.825Z,18.20
2023-05-17T16:32:07.767Z,18.10
2023-05-17T16:34:34.640Z,17.70
2023-05-17T16:37:01.560Z,18.00
2023-05-17T16:39:28.799Z,18.10
2023-05-17T16:41:55.841Z,18.40
2023-05-17T16:44:22.717Z,18.30
2023-05-17T16:46:50.377Z,18.20
2023-05-17T16:49:17.222Z,18.60
2023-05-17T16:51:45.422Z,18.60
2023-05-17T16:54:12.288Z,18.60
2023-05-17T16:56:39.514Z,18.50
2023-05-17T16:59:06.304Z,18.30
2023-05-17T17:01:33.182Z,18.60
2023-05-17T17:04:00.309Z,18.70
2023-05-17T17:06:27.339Z,18.70
2023-05-17T17:08:54.169Z,18.60
2023-05-17T17:11:23.624Z,18.40
2023-05-17T17:13:50.439Z,18.20
2023-05-17T17:16:17.628Z,17.90
2023-05-17T17:18:44.596Z,17.70
2023-05-17T17:21:11.438Z,17.60
2023-05-17T17:23:39.792Z,17.60
2023-05-17T17:26:08.699Z,17.70
2023-05-17T17:28:35.751Z,17.90
2023-05-17T17:31:02.559Z,17.90
2023-05-17T17:33:29.395Z,18.00
2023-05-17T17:35:56.397Z,18.10
2023-05-17T17:38:23.282Z,17.90
2023-05-17T17:40:50.209Z,18.40
2023-05-17T17:43:17.028Z,18.20
2023-05-17T17:45:44.793Z,18.30
2023-05-17T17:48:11.624Z,18.60
2023-05-17T17:50:38.441Z,18.60
2023-05-17T17:53:05.332Z,18.70
2023-05-17T17:55:32.122Z,19.00
2023-05-17T17:57:58.893Z,19.10
2023-05-17T18:00:25.720Z,18.90
2023-05-17T18:02:52.715Z,18.50
2023-05-17T18:05:19.936Z,18.50
2023-05-17T18:07:46.783Z,18.30
2023-05-17T18:10:13.530Z,18.10
2023-05-17T18:12:40.374Z,18.10
2023-05-17T18:15:07.602Z,17.90
2023-05-17T18:17:34.547Z,17.70
2023-05-17T18:20:01.396Z,17.70
2023-05-17T18:22:29.450Z,17.60
2023-05-17T18:24:56.398Z,17.30
2023-05-17T18:27:23.249Z,17.80
2023-05-17T18:29:50.006Z,17.60
2023-05-17T18:32:16.922Z,17.40
2023-05-17T18:34:43.856Z,17.50
2023-05-17T18:37:10.600Z,17.30
2023-05-17T18:39:37.414Z,17.20
2023-05-17T18:42:04.474Z,17.30
2023-05-17T18:44:31.350Z,17.00
2023-05-17T18:46:58.172Z,17.10
2023-05-17T18:49:26.485Z,17.30
2023-05-17T18:51:53.353Z,17.00
2023-05-17T18:54:20.203Z,16.90
2023-05-17T18:56:46.979Z,16.80
2023-05-17T18:59:13.742Z,16.70
2023-05-17T19:01:40.661Z,16.60
2023-05-17T19:04:07.596Z,16.40
2023-05-17T19:06:34.488Z,16.60
2023-05-17T19:09:01.438Z,16.50
2023-05-17T19:11:28.757Z,16.30
2023-05-17T19:13:56.079Z,16.50
2023-05-17T19:16:22.980Z,16.70
2023-05-17T19:18:50.308Z,16.50
2023-05-17T19:21:17.270Z,16.50
2023-05-17T19:23:44.126Z,16.30
2023-05-17T19:26:11.102Z,16.30
2023-05-17T19:28:38.079Z,16.40
2023-05-17T19:31:05.012Z,16.20
2023-05-17T19:33:34.057Z,16.50
2023-05-17T19:36:01.350Z,16.50
2023-05-17T19:38:28.278Z,16.40
2023-05-17T19:40:55.087Z,16.30
2023-05-17T19:43:21.932Z,16.30
2023-05-17T19:45:48.781Z,16.40
2023-05-17T19:48:15.583Z,16.30
2023-05-17T19:50:42.573Z,16.30
2023-05-17T19:53:09.416Z,16.20
2023-05-17T19:55:36.678Z,16.50
2023-05-17T19:58:03.559Z,16.30
2023-05-17T20:00:32.657Z,16.40
2023-05-17T20:02:59.810Z,16.20
2023-05-17T20:05:27.283Z,16.20
2023-05-17T20:07:55.293Z,16.10
2023-05-17T20:10:22.398Z,16.10
2023-05-17T20:12:49.217Z,16.00
2023-05-17T20:15:16.269Z,16.00
2023-05-17T20:17:43.126Z,16.10
2023-05-17T20:20:10.247Z,15.90
2023-05-17T20:22:37.777Z,16.00
2023-05-17T20:25:04.905Z,16.00
2023-05-17T20:27:31.753Z,16.00
2023-05-17T20:29:58.552Z,16.30
2023-05-17T20:32:25.561Z,16.40
2023-05-17T20:34:52.485Z,16.30
2023-05-17T20:37:19.269Z,16.60
2023-05-17T20:39:46.395Z,16.50
2023-05-17T20:42:18.012Z,16.40
2023-05-17T20:44:45.486Z,16.60
2023-05-17T20:47:12.478Z,16.70
2023-05-17T20:49:39.327Z,16.70
2023-05-17T20:52:06.475Z,16.60
2023-05-17T20:54:33.426Z,16.50
2023-05-17T20:57:00.597Z,16.70
2023-05-17T20:59:27.589Z,16.50
2023-05-17T21:01:54.482Z,16.50
2023-05-17T21:04:21.662Z,16.20
2023-05-17T21:06:48.460Z,16.20
2023-05-17T21:09:15.476Z,16.30
2023-05-17T21:11:44.145Z,16.20
2023-05-17T21:14:10.955Z,16.40
2023-05-17T21:16:37.850Z,16.10
2023-05-17T21:19:04.751Z,16.40
2023-05-17T21:21:31.535Z,16.40
2023-05-17T21:23:58.422Z,16.30
2023-05-17T21:28:58.484Z,16.10
2023-05-17T21:31:25.954Z,16.20
2023-05-17T21:33:52.762Z,16.30
2023-05-17T21:36:19.604Z,16.00
2023-05-17T21:38:46.422Z,16.20
2023-05-17T21:41:13.327Z,16.00
2023-05-17T21:43:40.153Z,16.00
2023-05-17T21:46:07.002Z,16.00
2023-05-17T21:48:33.824Z,15.80
2023-05-17T21:51:00.912Z,15.70
2023-05-17T21:53:27.707Z,15.90
2023-05-17T21:56:01.905Z,15.80
2023-05-17T21:58:30.817Z,15.50
2023-05-17T22:00:58.104Z,15.50
2023-05-17T22:03:25.062Z,15.50
2023-05-17T22:05:52.584Z,15.60
2023-05-17T22:08:19.492Z,15.60
2023-05-17T22:10:46.665Z,15.40
2023-05-17T22:13:15.884Z,15.30
2023-05-17T22:15:42.904Z,15.10
2023-05-17T22:18:12.448Z,15.60
2023-05-17T22:20:39.561Z,15.70
2023-05-17T22:23:06.394Z,15.40
2023-05-17T22:25:33.207Z,15.40
2023-05-17T22:28:00.234Z,15.50
2023-05-17T22:30:27.068Z,15.50
2023-05-17T22:32:57.065Z,15.40
2023-05-17T22:35:24.703Z,15.20
2023-05-17T22:37:51.904Z,15.30
2023-05-17T22:40:18.878Z,15.10
2023-05-17T22:42:46.095Z,15.30
2023-05-17T22:45:14.502Z,15.30
2023-05-17T22:47:46.873Z,15.00
2023-05-17T22:50:15.698Z,14.90
2023-05-17T22:52:43.138Z,15.10
2023-05-17T22:55:11.173Z,15.30
2023-05-17T22:57:38.495Z,15.30
2023-05-17T23:00:06.318Z,15.30
2023-05-17T23:02:33.156Z,15.20
2023-05-17T23:05:03.492Z,15.20
2023-05-17T23:07:37.260Z,14.90
2023-05-17T23:10:11.594Z,14.60
2023-05-17T23:12:38.984Z,14.70
2023-05-17T23:15:06.775Z,14.60
2023-05-17T23:17:33.680Z,14.50
2023-05-17T23:20:02.042Z,14.30
2023-05-17T23:22:31.497Z,14.30
2023-05-17T23:24:58.940Z,14.10
2023-05-17T23:27:26.317Z,14.20
2023-05-17T23:29:54.177Z,14.40
2023-05-17T23:32:21.665Z,14.40
2023-05-17T23:34:54.181Z,14.30
2023-05-17T23:37:21.097Z,14.40
2023-05-17T23:39:47.880Z,14.10
2023-05-17T23:42:14.777Z,14.10
2023-05-17T23:44:46.484Z,14.30
2023-05-17T23:47:13.366Z,14.40
2023-05-17T23:49:40.244Z,14.10
2023-05-17T23:52:11.292Z,14.10
2023-05-17T23:54:39.327Z,14.10
2023-05-17T23:57:06.876Z,14.10
2023-05-17T23:59:35.066Z,14.10
